sensor_id;sensor_type;location;lat;lon;timestamp;P1;durP1;ratioP1;P2;durP2;ratioP2
3959;SDS011;1994;48.640;8.894;2022-10-30T00:00:46;5.37;;;4.03;;
3959;SDS011;1994;48.640;8.894;2022-10-30T00:03:13;4.70;;;2.90;;
3959;SDS011;1994;48.640;8.894;2022-10-30T00:05:43;4.73;;;3.30;;
3959;SDS011;1994;48.640;8.894;2022-10-30T00:08:16;12.40;;;3.00;;
3959;SDS011;1994;48.640;8.894;2022-10-30T00:10:45;10.30;;;4.43;;
3959;SDS011;1994;48.640;8.894;2022-10-30T00:13:14;4.83;;;3.10;;
3959;SDS011;1994;48.640;8.894;2022-10-30T00:15:51;8.17;;;3.40;;
3959;SDS011;1994;48.640;8.894;2022-10-30T00:18:18;3.77;;;3.47;;
3959;SDS011;1994;48.640;8.894;2022-10-30T00:20:45;6.30;;;3.50;;
3959;SDS011;1994;48.640;8.894;2022-10-30T00:23:11;5.97;;;3.63;;
3959;SDS011;1994;48.640;8.894;2022-10-30T00:25:40;6.80;;;3.00;;
3959;SDS011;1994;48.640;8.894;2022-10-30T00:28:06;6.30;;;3.23;;
3959;SDS011;1994;48.640;8.894;2022-10-30T00:30:33;7.37;;;2.90;;
3959;SDS011;1994;48.640;8.894;2022-10-30T00:32:59;8.20;;;3.87;;
3959;SDS011;1994;48.640;8.894;2022-10-30T00:35:25;9.60;;;3.40;;
3959;SDS011;1994;48.640;8.894;2022-10-30T00:37:51;4.27;;;2.70;;
3959;SDS011;1994;48.640;8.894;2022-10-30T00:40:17;14.50;;;3.57;;
3959;SDS011;1994;48.640;8.894;2022-10-30T00:42:46;7.77;;;3.93;;
3959;SDS011;1994;48.640;8.894;2022-10-30T00:45:12;5.87;;;3.50;;
3959;SDS011;1994;48.640;8.894;2022-10-30T00:47:42;14.30;;;4.13;;
3959;SDS011;1994;48.640;8.894;2022-10-30T00:53:08;8.77;;;3.60;;
3959;SDS011;1994;48.640;8.894;2022-10-30T00:55:42;6.17;;;3.17;;
3959;SDS011;1994;48.640;8.894;2022-10-30T00:58:18;7.80;;;3.10;;
3959;SDS011;1994;48.640;8.894;2022-10-30T01:01:10;9.40;;;3.60;;
3959;SDS011;1994;48.640;8.894;2022-10-30T01:03:41;6.27;;;3.00;;
3959;SDS011;1994;48.640;8.894;2022-10-30T01:06:08;10.20;;;4.10;;
3959;SDS011;1994;48.640;8.894;2022-10-30T01:08:37;16.80;;;4.17;;
3959;SDS011;1994;48.640;8.894;2022-10-30T01:11:03;6.83;;;3.30;;
3959;SDS011;1994;48.640;8.894;2022-10-30T01:13:30;12.20;;;3.73;;
3959;SDS011;1994;48.640;8.894;2022-10-30T01:16:07;8.73;;;4.70;;
3959;SDS011;1994;48.640;8.894;2022-10-30T01:19:16;8.30;;;3.80;;
3959;SDS011;1994;48.640;8.894;2022-10-30T01:33:58;4.40;;;3.40;;
3959;SDS011;1994;48.640;8.894;2022-10-30T01:36:32;10.00;;;3.77;;
3959;SDS011;1994;48.640;8.894;2022-10-30T01:41:41;11.80;;;3.77;;
3959;SDS011;1994;48.640;8.894;2022-10-30T01:44:14;6.93;;;3.50;;
3959;SDS011;1994;48.640;8.894;2022-10-30T01:55:36;7.77;;;3.43;;
3959;SDS011;1994;48.640;8.894;2022-10-30T01:58:56;5.97;;;3.50;;
3959;SDS011;1994;48.640;8.894;2022-10-30T02:01:28;12.97;;;3.80;;
3959;SDS011;1994;48.640;8.894;2022-10-30T02:03:57;12.03;;;3.47;;
3959;SDS011;1994;48.640;8.894;2022-10-30T02:06:23;6.80;;;2.57;;
3959;SDS011;1994;48.640;8.894;2022-10-30T02:08:49;6.80;;;2.80;;
3959;SDS011;1994;48.640;8.894;2022-10-30T02:11:18;7.03;;;3.60;;
3959;SDS011;1994;48.640;8.894;2022-10-30T02:13:45;8.60;;;2.80;;
3959;SDS011;1994;48.640;8.894;2022-10-30T02:16:10;5.00;;;3.87;;
3959;SDS011;1994;48.640;8.894;2022-10-30T02:18:37;4.43;;;3.20;;
3959;SDS011;1994;48.640;8.894;2022-10-30T02:21:04;3.70;;;2.90;;
3959;SDS011;1994;48.640;8.894;2022-10-30T02:23:30;12.23;;;3.20;;
3959;SDS011;1994;48.640;8.894;2022-10-30T02:25:57;5.07;;;3.30;;
3959;SDS011;1994;48.640;8.894;2022-10-30T02:28:22;6.80;;;4.10;;
3959;SDS011;1994;48.640;8.894;2022-10-30T02:30:48;6.50;;;3.07;;
3959;SDS011;1994;48.640;8.894;2022-10-30T02:33:14;5.17;;;2.97;;
3959;SDS011;1994;48.640;8.894;2022-10-30T02:35:39;6.83;;;3.43;;
3959;SDS011;1994;48.640;8.894;2022-10-30T02:38:05;4.87;;;3.80;;
3959;SDS011;1994;48.640;8.894;2022-10-30T02:40:31;5.13;;;3.10;;
3959;SDS011;1994;48.640;8.894;2022-10-30T02:42:57;5.37;;;3.27;;
3959;SDS011;1994;48.640;8.894;2022-10-30T02:45:23;14.13;;;3.80;;
3959;SDS011;1994;48.640;8.894;2022-10-30T02:47:49;8.83;;;2.90;;
3959;SDS011;1994;48.640;8.894;2022-10-30T02:50:15;10.93;;;4.00;;
3959;SDS011;1994;48.640;8.894;2022-10-30T02:52:46;5.37;;;3.57;;
3959;SDS011;1994;48.640;8.894;2022-10-30T02:55:17;13.23;;;4.27;;
3959;SDS011;1994;48.640;8.894;2022-10-30T02:57:43;12.50;;;4.67;;
3959;SDS011;1994;48.640;8.894;2022-10-30T03:00:12;5.80;;;3.53;;
3959;SDS011;1994;48.640;8.894;2022-10-30T03:02:38;10.50;;;3.93;;
3959;SDS011;1994;48.640;8.894;2022-10-30T03:05:04;6.80;;;2.80;;
3959;SDS011;1994;48.640;8.894;2022-10-30T03:07:30;5.00;;;3.40;;
3959;SDS011;1994;48.640;8.894;2022-10-30T03:09:59;6.70;;;3.43;;
3959;SDS011;1994;48.640;8.894;2022-10-30T03:12:24;6.90;;;3.67;;
3959;SDS011;1994;48.640;8.894;2022-10-30T03:14:50;3.13;;;2.83;;
3959;SDS011;1994;48.640;8.894;2022-10-30T03:17:16;4.10;;;2.90;;
3959;SDS011;1994;48.640;8.894;2022-10-30T03:19:42;8.17;;;3.80;;
3959;SDS011;1994;48.640;8.894;2022-10-30T03:22:07;5.17;;;2.70;;
3959;SDS011;1994;48.640;8.894;2022-10-30T03:24:33;5.40;;;3.30;;
3959;SDS011;1994;48.640;8.894;2022-10-30T03:26:59;4.53;;;2.90;;
3959;SDS011;1994;48.640;8.894;2022-10-30T03:29:24;15.50;;;3.97;;
3959;SDS011;1994;48.640;8.894;2022-10-30T03:31:50;8.37;;;3.50;;
3959;SDS011;1994;48.640;8.894;2022-10-30T03:34:16;5.40;;;3.20;;
3959;SDS011;1994;48.640;8.894;2022-10-30T03:36:42;3.63;;;3.00;;
3959;SDS011;1994;48.640;8.894;2022-10-30T03:39:07;7.17;;;3.30;;
3959;SDS011;1994;48.640;8.894;2022-10-30T03:41:33;10.97;;;3.70;;
3959;SDS011;1994;48.640;8.894;2022-10-30T03:43:59;9.47;;;3.27;;
3959;SDS011;1994;48.640;8.894;2022-10-30T03:46:28;4.07;;;2.97;;
3959;SDS011;1994;48.640;8.894;2022-10-30T03:48:55;8.63;;;3.27;;
3959;SDS011;1994;48.640;8.894;2022-10-30T03:51:21;4.37;;;3.20;;
3959;SDS011;1994;48.640;8.894;2022-10-30T03:53:46;7.73;;;3.40;;
3959;SDS011;1994;48.640;8.894;2022-10-30T03:56:12;4.40;;;3.50;;
3959;SDS011;1994;48.640;8.894;2022-10-30T03:58:38;3.27;;;2.77;;
3959;SDS011;1994;48.640;8.894;2022-10-30T04:01:04;5.00;;;3.57;;
3959;SDS011;1994;48.640;8.894;2022-10-30T04:03:31;8.00;;;4.27;;
3959;SDS011;1994;48.640;8.894;2022-10-30T04:05:57;11.83;;;2.80;;
3959;SDS011;1994;48.640;8.894;2022-10-30T04:08:23;8.17;;;2.43;;
3959;SDS011;1994;48.640;8.894;2022-10-30T04:10:52;5.37;;;3.60;;
3959;SDS011;1994;48.640;8.894;2022-10-30T04:13:21;2.80;;;2.30;;
3959;SDS011;1994;48.640;8.894;2022-10-30T04:15:47;3.53;;;2.37;;
3959;SDS011;1994;48.640;8.894;2022-10-30T04:18:13;6.80;;;2.87;;
3959;SDS011;1994;48.640;8.894;2022-10-30T04:20:40;7.37;;;3.47;;
3959;SDS011;1994;48.640;8.894;2022-10-30T04:23:07;5.80;;;2.90;;
3959;SDS011;1994;48.640;8.894;2022-10-30T04:25:39;4.30;;;2.67;;
3959;SDS011;1994;48.640;8.894;2022-10-30T04:28:05;9.67;;;3.47;;
3959;SDS011;1994;48.640;8.894;2022-10-30T04:30:31;7.13;;;3.27;;
3959;SDS011;1994;48.640;8.894;2022-10-30T04:33:01;4.57;;;3.37;;
3959;SDS011;1994;48.640;8.894;2022-10-30T04:35:36;7.00;;;3.10;;
3959;SDS011;1994;48.640;8.894;2022-10-30T04:38:03;8.17;;;2.23;;
3959;SDS011;1994;48.640;8.894;2022-10-30T04:40:38;7.27;;;3.40;;
3959;SDS011;1994;48.640;8.894;2022-10-30T04:43:06;8.60;;;3.20;;
3959;SDS011;1994;48.640;8.894;2022-10-30T04:45:35;3.50;;;2.77;;
3959;SDS011;1994;48.640;8.894;2022-10-30T04:48:15;4.00;;;2.40;;
3959;SDS011;1994;48.640;8.894;2022-10-30T04:50:42;6.77;;;2.87;;
3959;SDS011;1994;48.640;8.894;2022-10-30T04:53:15;4.60;;;3.40;;
3959;SDS011;1994;48.640;8.894;2022-10-30T04:58:40;6.63;;;2.80;;
3959;SDS011;1994;48.640;8.894;2022-10-30T05:01:06;5.87;;;2.70;;
3959;SDS011;1994;48.640;8.894;2022-10-30T05:03:33;2.57;;;2.07;;
3959;SDS011;1994;48.640;8.894;2022-10-30T05:06:02;4.77;;;2.73;;
3959;SDS011;1994;48.640;8.894;2022-10-30T05:08:32;3.33;;;2.40;;
3959;SDS011;1994;48.640;8.894;2022-10-30T05:10:58;4.93;;;2.90;;
3959;SDS011;1994;48.640;8.894;2022-10-30T05:13:27;5.73;;;3.10;;
3959;SDS011;1994;48.640;8.894;2022-10-30T05:15:53;4.70;;;3.70;;
3959;SDS011;1994;48.640;8.894;2022-10-30T05:18:19;8.40;;;3.50;;
3959;SDS011;1994;48.640;8.894;2022-10-30T05:20:48;4.40;;;3.03;;
3959;SDS011;1994;48.640;8.894;2022-10-30T05:23:14;3.03;;;2.83;;
3959;SDS011;1994;48.640;8.894;2022-10-30T05:25:39;2.97;;;2.67;;
3959;SDS011;1994;48.640;8.894;2022-10-30T05:28:08;5.30;;;2.90;;
3959;SDS011;1994;48.640;8.894;2022-10-30T05:30:34;13.73;;;3.37;;
3959;SDS011;1994;48.640;8.894;2022-10-30T05:33:01;3.07;;;2.70;;
3959;SDS011;1994;48.640;8.894;2022-10-30T05:35:32;9.50;;;2.43;;
3959;SDS011;1994;48.640;8.894;2022-10-30T05:38:04;5.87;;;2.50;;
3959;SDS011;1994;48.640;8.894;2022-10-30T05:40:33;4.50;;;2.60;;
3959;SDS011;1994;48.640;8.894;2022-10-30T05:42:59;4.63;;;3.07;;
3959;SDS011;1994;48.640;8.894;2022-10-30T05:45:25;3.17;;;2.70;;
3959;SDS011;1994;48.640;8.894;2022-10-30T05:47:54;4.83;;;3.10;;
3959;SDS011;1994;48.640;8.894;2022-10-30T05:50:26;5.30;;;2.87;;
3959;SDS011;1994;48.640;8.894;2022-10-30T05:52:56;4.83;;;3.97;;
3959;SDS011;1994;48.640;8.894;2022-10-30T05:55:28;7.13;;;3.30;;
3959;SDS011;1994;48.640;8.894;2022-10-30T05:57:55;5.20;;;3.30;;
3959;SDS011;1994;48.640;8.894;2022-10-30T06:00:22;8.37;;;4.37;;
3959;SDS011;1994;48.640;8.894;2022-10-30T06:02:49;8.00;;;4.03;;
3959;SDS011;1994;48.640;8.894;2022-10-30T06:05:15;9.27;;;4.67;;
3959;SDS011;1994;48.640;8.894;2022-10-30T06:07:42;7.03;;;3.50;;
3959;SDS011;1994;48.640;8.894;2022-10-30T06:10:08;4.60;;;3.80;;
3959;SDS011;1994;48.640;8.894;2022-10-30T06:12:34;4.63;;;2.67;;
3959;SDS011;1994;48.640;8.894;2022-10-30T06:14:59;6.53;;;3.43;;
3959;SDS011;1994;48.640;8.894;2022-10-30T06:17:25;7.23;;;3.00;;
3959;SDS011;1994;48.640;8.894;2022-10-30T06:19:53;3.23;;;2.77;;
3959;SDS011;1994;48.640;8.894;2022-10-30T06:22:19;3.37;;;2.60;;
3959;SDS011;1994;48.640;8.894;2022-10-30T06:24:45;9.03;;;3.40;;
3959;SDS011;1994;48.640;8.894;2022-10-30T06:27:10;8.33;;;2.53;;
3959;SDS011;1994;48.640;8.894;2022-10-30T06:29:36;3.47;;;2.50;;
3959;SDS011;1994;48.640;8.894;2022-10-30T06:32:02;6.07;;;3.20;;
3959;SDS011;1994;48.640;8.894;2022-10-30T06:34:27;4.83;;;2.70;;
3959;SDS011;1994;48.640;8.894;2022-10-30T06:36:53;3.90;;;2.77;;
3959;SDS011;1994;48.640;8.894;2022-10-30T06:39:19;5.03;;;2.83;;
3959;SDS011;1994;48.640;8.894;2022-10-30T06:41:45;3.93;;;2.37;;
3959;SDS011;1994;48.640;8.894;2022-10-30T06:44:13;6.23;;;2.50;;
3959;SDS011;1994;48.640;8.894;2022-10-30T06:46:40;5.60;;;2.93;;
3959;SDS011;1994;48.640;8.894;2022-10-30T06:49:06;5.73;;;2.40;;
3959;SDS011;1994;48.640;8.894;2022-10-30T06:51:31;6.07;;;3.20;;
3959;SDS011;1994;48.640;8.894;2022-10-30T06:53:58;10.03;;;3.67;;
3959;SDS011;1994;48.640;8.894;2022-10-30T06:56:24;6.27;;;2.53;;
3959;SDS011;1994;48.640;8.894;2022-10-30T06:58:49;3.70;;;2.90;;
3959;SDS011;1994;48.640;8.894;2022-10-30T07:01:15;5.03;;;2.57;;
3959;SDS011;1994;48.640;8.894;2022-10-30T07:03:42;6.93;;;2.90;;
3959;SDS011;1994;48.640;8.894;2022-10-30T07:06:08;3.50;;;2.70;;
3959;SDS011;1994;48.640;8.894;2022-10-30T07:08:34;3.60;;;2.73;;
3959;SDS011;1994;48.640;8.894;2022-10-30T07:11:00;6.67;;;3.10;;
3959;SDS011;1994;48.640;8.894;2022-10-30T07:13:25;6.90;;;2.87;;
3959;SDS011;1994;48.640;8.894;2022-10-30T07:15:51;4.70;;;2.73;;
3959;SDS011;1994;48.640;8.894;2022-10-30T07:18:17;7.00;;;2.77;;
3959;SDS011;1994;48.640;8.894;2022-10-30T07:20:42;6.60;;;2.67;;
3959;SDS011;1994;48.640;8.894;2022-10-30T07:23:08;3.20;;;2.77;;
3959;SDS011;1994;48.640;8.894;2022-10-30T07:25:34;3.30;;;2.40;;
3959;SDS011;1994;48.640;8.894;2022-10-30T07:28:00;3.63;;;2.17;;
3959;SDS011;1994;48.640;8.894;2022-10-30T07:30:26;3.40;;;3.10;;
3959;SDS011;1994;48.640;8.894;2022-10-30T07:32:55;13.07;;;2.83;;
3959;SDS011;1994;48.640;8.894;2022-10-30T07:35:26;4.90;;;2.30;;
3959;SDS011;1994;48.640;8.894;2022-10-30T07:37:53;4.73;;;2.90;;
3959;SDS011;1994;48.640;8.894;2022-10-30T07:40:19;3.20;;;2.53;;
3959;SDS011;1994;48.640;8.894;2022-10-30T07:42:45;3.07;;;2.53;;
3959;SDS011;1994;48.640;8.894;2022-10-30T07:45:11;3.43;;;2.10;;
3959;SDS011;1994;48.640;8.894;2022-10-30T07:47:38;4.77;;;2.50;;
3959;SDS011;1994;48.640;8.894;2022-10-30T07:50:10;10.13;;;2.60;;
3959;SDS011;1994;48.640;8.894;2022-10-30T07:52:36;4.80;;;2.83;;
3959;SDS011;1994;48.640;8.894;2022-10-30T07:55:02;3.03;;;2.83;;
3959;SDS011;1994;48.640;8.894;2022-10-30T07:57:30;6.93;;;2.50;;
3959;SDS011;1994;48.640;8.894;2022-10-30T08:00:00;12.63;;;3.17;;
3959;SDS011;1994;48.640;8.894;2022-10-30T08:02:26;8.57;;;3.20;;
3959;SDS011;1994;48.640;8.894;2022-10-30T08:04:52;2.90;;;2.70;;
3959;SDS011;1994;48.640;8.894;2022-10-30T08:07:18;4.73;;;2.37;;
3959;SDS011;1994;48.640;8.894;2022-10-30T08:09:43;4.23;;;2.60;;
3959;SDS011;1994;48.640;8.894;2022-10-30T08:12:09;9.80;;;5.07;;
3959;SDS011;1994;48.640;8.894;2022-10-30T08:14:35;5.57;;;2.70;;
3959;SDS011;1994;48.640;8.894;2022-10-30T08:17:01;3.60;;;2.57;;
3959;SDS011;1994;48.640;8.894;2022-10-30T08:19:29;4.67;;;2.80;;
3959;SDS011;1994;48.640;8.894;2022-10-30T08:21:55;7.23;;;3.20;;
3959;SDS011;1994;48.640;8.894;2022-10-30T08:24:20;4.90;;;2.73;;
3959;SDS011;1994;48.640;8.894;2022-10-30T08:26:52;5.03;;;2.77;;
3959;SDS011;1994;48.640;8.894;2022-10-30T08:29:18;3.53;;;3.23;;
3959;SDS011;1994;48.640;8.894;2022-10-30T08:31:46;5.23;;;2.53;;
3959;SDS011;1994;48.640;8.894;2022-10-30T08:34:13;6.10;;;2.73;;
3959;SDS011;1994;48.640;8.894;2022-10-30T08:36:42;5.37;;;2.83;;
3959;SDS011;1994;48.640;8.894;2022-10-30T08:39:08;9.90;;;2.87;;
3959;SDS011;1994;48.640;8.894;2022-10-30T08:41:34;4.20;;;3.27;;
3959;SDS011;1994;48.640;8.894;2022-10-30T08:44:00;6.00;;;3.63;;
3959;SDS011;1994;48.640;8.894;2022-10-30T08:46:26;6.23;;;2.27;;
3959;SDS011;1994;48.640;8.894;2022-10-30T08:48:52;4.23;;;2.33;;
3959;SDS011;1994;48.640;8.894;2022-10-30T08:51:19;2.23;;;2.03;;
3959;SDS011;1994;48.640;8.894;2022-10-30T08:53:47;6.40;;;2.43;;
3959;SDS011;1994;48.640;8.894;2022-10-30T08:56:16;8.30;;;2.90;;
3959;SDS011;1994;48.640;8.894;2022-10-30T08:58:42;5.57;;;3.13;;
3959;SDS011;1994;48.640;8.894;2022-10-30T09:01:08;2.90;;;2.57;;
3959;SDS011;1994;48.640;8.894;2022-10-30T09:03:36;4.00;;;2.77;;
3959;SDS011;1994;48.640;8.894;2022-10-30T09:06:03;3.73;;;2.73;;
3959;SDS011;1994;48.640;8.894;2022-10-30T09:08:29;5.70;;;2.93;;
3959;SDS011;1994;48.640;8.894;2022-10-30T09:10:57;3.40;;;2.60;;
3959;SDS011;1994;48.640;8.894;2022-10-30T09:13:24;5.07;;;2.70;;
3959;SDS011;1994;48.640;8.894;2022-10-30T09:15:52;9.67;;;2.77;;
3959;SDS011;1994;48.640;8.894;2022-10-30T09:18:30;4.93;;;2.10;;
3959;SDS011;1994;48.640;8.894;2022-10-30T09:20:56;9.70;;;2.70;;
3959;SDS011;1994;48.640;8.894;2022-10-30T09:23:22;2.80;;;2.60;;
3959;SDS011;1994;48.640;8.894;2022-10-30T09:25:47;4.70;;;3.30;;
3959;SDS011;1994;48.640;8.894;2022-10-30T09:28:13;7.90;;;2.13;;
3959;SDS011;1994;48.640;8.894;2022-10-30T09:30:39;7.70;;;2.73;;
3959;SDS011;1994;48.640;8.894;2022-10-30T09:33:04;3.33;;;2.30;;
3959;SDS011;1994;48.640;8.894;2022-10-30T09:35:30;6.43;;;2.60;;
3959;SDS011;1994;48.640;8.894;2022-10-30T09:37:57;3.30;;;2.70;;
3959;SDS011;1994;48.640;8.894;2022-10-30T09:40:39;9.27;;;3.03;;
3959;SDS011;1994;48.640;8.894;2022-10-30T09:52:19;3.83;;;2.70;;
3959;SDS011;1994;48.640;8.894;2022-10-30T10:00:22;3.90;;;2.13;;
3959;SDS011;1994;48.640;8.894;2022-10-30T10:05:53;2.83;;;2.63;;
3959;SDS011;1994;48.640;8.894;2022-10-30T10:08:32;13.47;;;3.17;;
3959;SDS011;1994;48.640;8.894;2022-10-30T10:11:15;2.60;;;2.40;;
3959;SDS011;1994;48.640;8.894;2022-10-30T10:13:52;3.60;;;2.33;;
3959;SDS011;1994;48.640;8.894;2022-10-30T10:16:37;4.20;;;3.00;;
3959;SDS011;1994;48.640;8.894;2022-10-30T10:19:08;3.87;;;2.70;;
3959;SDS011;1994;48.640;8.894;2022-10-30T10:22:00;5.43;;;2.10;;
3959;SDS011;1994;48.640;8.894;2022-10-30T10:24:32;6.10;;;2.40;;
3959;SDS011;1994;48.640;8.894;2022-10-30T10:30:25;4.70;;;2.87;;
3959;SDS011;1994;48.640;8.894;2022-10-30T10:33:32;7.47;;;2.73;;
3959;SDS011;1994;48.640;8.894;2022-10-30T10:36:39;2.50;;;2.30;;
3959;SDS011;1994;48.640;8.894;2022-10-30T10:39:22;10.73;;;2.97;;
3959;SDS011;1994;48.640;8.894;2022-10-30T10:43:05;2.67;;;2.43;;
3959;SDS011;1994;48.640;8.894;2022-10-30T10:45:27;7.47;;;3.40;;
3959;SDS011;1994;48.640;8.894;2022-10-30T10:50:58;7.70;;;2.70;;
3959;SDS011;1994;48.640;8.894;2022-10-30T10:53:43;3.20;;;2.30;;
3959;SDS011;1994;48.640;8.894;2022-10-30T10:56:19;6.57;;;2.27;;
3959;SDS011;1994;48.640;8.894;2022-10-30T10:59:04;2.77;;;2.20;;
3959;SDS011;1994;48.640;8.894;2022-10-30T11:02:21;3.80;;;3.17;;
3959;SDS011;1994;48.640;8.894;2022-10-30T11:04:48;5.37;;;2.53;;
3959;SDS011;1994;48.640;8.894;2022-10-30T11:07:36;3.07;;;2.77;;
3959;SDS011;1994;48.640;8.894;2022-10-30T11:10:13;2.50;;;2.30;;
3959;SDS011;1994;48.640;8.894;2022-10-30T11:12:41;3.20;;;2.23;;
3959;SDS011;1994;48.640;8.894;2022-10-30T11:18:06;4.30;;;2.93;;
3959;SDS011;1994;48.640;8.894;2022-10-30T11:20:39;9.90;;;3.13;;
3959;SDS011;1994;48.640;8.894;2022-10-30T11:23:43;2.73;;;2.30;;
3959;SDS011;1994;48.640;8.894;2022-10-30T11:31:44;7.20;;;2.90;;
3959;SDS011;1994;48.640;8.894;2022-10-30T11:36:43;7.70;;;3.00;;
3959;SDS011;1994;48.640;8.894;2022-10-30T11:39:17;8.00;;;2.77;;
3959;SDS011;1994;48.640;8.894;2022-10-30T11:42:01;7.10;;;2.70;;
3959;SDS011;1994;48.640;8.894;2022-10-30T11:44:44;3.87;;;2.87;;
3959;SDS011;1994;48.640;8.894;2022-10-30T11:47:14;3.30;;;2.97;;
3959;SDS011;1994;48.640;8.894;2022-10-30T11:49:46;7.50;;;2.93;;
3959;SDS011;1994;48.640;8.894;2022-10-30T11:52:18;3.67;;;3.10;;
3959;SDS011;1994;48.640;8.894;2022-10-30T11:55:18;2.70;;;2.50;;
3959;SDS011;1994;48.640;8.894;2022-10-30T11:58:06;4.30;;;2.70;;
3959;SDS011;1994;48.640;8.894;2022-10-30T12:00:46;3.60;;;2.80;;
3959;SDS011;1994;48.640;8.894;2022-10-30T12:03:39;2.73;;;2.50;;
3959;SDS011;1994;48.640;8.894;2022-10-30T12:09:10;2.73;;;2.53;;
3959;SDS011;1994;48.640;8.894;2022-10-30T12:11:43;4.87;;;3.23;;
3959;SDS011;1994;48.640;8.894;2022-10-30T12:14:18;7.63;;;3.40;;
3959;SDS011;1994;48.640;8.894;2022-10-30T12:16:50;5.23;;;3.07;;
3959;SDS011;1994;48.640;8.894;2022-10-30T12:19:24;4.50;;;3.50;;
3959;SDS011;1994;48.640;8.894;2022-10-30T12:21:51;5.10;;;3.13;;
3959;SDS011;1994;48.640;8.894;2022-10-30T12:26:51;5.33;;;2.73;;
3959;SDS011;1994;48.640;8.894;2022-10-30T12:29:25;3.70;;;2.87;;
3959;SDS011;1994;48.640;8.894;2022-10-30T12:32:05;4.00;;;2.93;;
3959;SDS011;1994;48.640;8.894;2022-10-30T12:37:11;7.00;;;3.20;;
3959;SDS011;1994;48.640;8.894;2022-10-30T12:39:55;3.00;;;2.67;;
3959;SDS011;1994;48.640;8.894;2022-10-30T12:42:27;6.20;;;3.30;;
3959;SDS011;1994;48.640;8.894;2022-10-30T12:45:02;3.30;;;3.00;;
3959;SDS011;1994;48.640;8.894;2022-10-30T12:48:04;4.10;;;2.87;;
3959;SDS011;1994;48.640;8.894;2022-10-30T12:50:56;3.47;;;2.53;;
3959;SDS011;1994;48.640;8.894;2022-10-30T12:56:43;5.03;;;2.87;;
3959;SDS011;1994;48.640;8.894;2022-10-30T13:02:25;8.63;;;3.20;;
3959;SDS011;1994;48.640;8.894;2022-10-30T13:14:18;3.97;;;2.80;;
3959;SDS011;1994;48.640;8.894;2022-10-30T13:16:50;22.90;;;12.00;;
3959;SDS011;1994;48.640;8.894;2022-10-30T13:19:16;6.80;;;4.03;;
3959;SDS011;1994;48.640;8.894;2022-10-30T13:21:46;7.50;;;5.90;;
3959;SDS011;1994;48.640;8.894;2022-10-30T13:25:00;4.00;;;2.60;;
3959;SDS011;1994;48.640;8.894;2022-10-30T13:27:58;3.30;;;2.47;;
3959;SDS011;1994;48.640;8.894;2022-10-30T13:34:08;2.23;;;1.63;;
3959;SDS011;1994;48.640;8.894;2022-10-30T13:37:10;3.40;;;1.70;;
3959;SDS011;1994;48.640;8.894;2022-10-30T13:46:02;2.13;;;1.87;;
3959;SDS011;1994;48.640;8.894;2022-10-30T13:51:56;1.87;;;1.40;;
3959;SDS011;1994;48.640;8.894;2022-10-30T13:54:34;2.67;;;2.20;;
3959;SDS011;1994;48.640;8.894;2022-10-30T13:57:07;2.57;;;1.77;;
3959;SDS011;1994;48.640;8.894;2022-10-30T14:02:42;1.47;;;1.37;;
3959;SDS011;1994;48.640;8.894;2022-10-30T14:05:33;5.97;;;1.73;;
3959;SDS011;1994;48.640;8.894;2022-10-30T14:11:20;4.70;;;1.57;;
3959;SDS011;1994;48.640;8.894;2022-10-30T14:13:53;2.57;;;2.20;;
3959;SDS011;1994;48.640;8.894;2022-10-30T14:19:12;2.07;;;1.90;;
3959;SDS011;1994;48.640;8.894;2022-10-30T14:24:28;2.07;;;1.87;;
3959;SDS011;1994;48.640;8.894;2022-10-30T14:32:00;2.33;;;2.13;;
3959;SDS011;1994;48.640;8.894;2022-10-30T14:34:42;1.90;;;1.80;;
3959;SDS011;1994;48.640;8.894;2022-10-30T14:37:15;2.47;;;2.00;;
3959;SDS011;1994;48.640;8.894;2022-10-30T14:39:47;3.53;;;2.60;;
3959;SDS011;1994;48.640;8.894;2022-10-30T14:45:24;2.63;;;2.43;;
3959;SDS011;1994;48.640;8.894;2022-10-30T14:47:56;1.83;;;1.70;;
3959;SDS011;1994;48.640;8.894;2022-10-30T14:53:19;4.23;;;1.67;;
3959;SDS011;1994;48.640;8.894;2022-10-30T14:59:16;16.63;;;2.30;;
3959;SDS011;1994;48.640;8.894;2022-10-30T15:01:59;8.93;;;2.27;;
3959;SDS011;1994;48.640;8.894;2022-10-30T15:07:23;8.40;;;4.33;;
3959;SDS011;1994;48.640;8.894;2022-10-30T15:15:59;4.40;;;3.07;;
3959;SDS011;1994;48.640;8.894;2022-10-30T15:18:30;4.87;;;3.50;;
3959;SDS011;1994;48.640;8.894;2022-10-30T15:20:58;7.13;;;5.83;;
3959;SDS011;1994;48.640;8.894;2022-10-30T15:23:30;5.13;;;3.50;;
3959;SDS011;1994;48.640;8.894;2022-10-30T15:26:06;12.03;;;5.13;;
3959;SDS011;1994;48.640;8.894;2022-10-30T15:28:42;4.50;;;3.70;;
3959;SDS011;1994;48.640;8.894;2022-10-30T15:31:21;7.80;;;5.53;;
3959;SDS011;1994;48.640;8.894;2022-10-30T15:33:49;10.13;;;4.20;;
3959;SDS011;1994;48.640;8.894;2022-10-30T15:36:21;8.90;;;4.07;;
3959;SDS011;1994;48.640;8.894;2022-10-30T15:39:13;4.50;;;3.40;;
3959;SDS011;1994;48.640;8.894;2022-10-30T15:41:45;4.33;;;3.93;;
3959;SDS011;1994;48.640;8.894;2022-10-30T15:44:24;8.63;;;3.87;;
3959;SDS011;1994;48.640;8.894;2022-10-30T15:47:02;4.20;;;3.27;;
3959;SDS011;1994;48.640;8.894;2022-10-30T15:49:32;4.70;;;3.93;;
3959;SDS011;1994;48.640;8.894;2022-10-30T15:52:19;3.97;;;3.60;;
3959;SDS011;1994;48.640;8.894;2022-10-30T15:54:47;5.73;;;3.57;;
3959;SDS011;1994;48.640;8.894;2022-10-30T15:57:31;7.00;;;4.03;;
3959;SDS011;1994;48.640;8.894;2022-10-30T16:00:05;3.63;;;3.33;;
3959;SDS011;1994;48.640;8.894;2022-10-30T16:05:48;5.73;;;4.63;;
3959;SDS011;1994;48.640;8.894;2022-10-30T16:08:16;13.37;;;4.37;;
3959;SDS011;1994;48.640;8.894;2022-10-30T16:10:52;10.37;;;4.60;;
3959;SDS011;1994;48.640;8.894;2022-10-30T16:13:24;3.93;;;3.63;;
3959;SDS011;1994;48.640;8.894;2022-10-30T16:15:54;10.63;;;4.80;;
3959;SDS011;1994;48.640;8.894;2022-10-30T16:18:29;5.47;;;3.83;;
3959;SDS011;1994;48.640;8.894;2022-10-30T16:21:00;7.80;;;3.77;;
3959;SDS011;1994;48.640;8.894;2022-10-30T16:23:45;5.93;;;4.40;;
3959;SDS011;1994;48.640;8.894;2022-10-30T16:31:38;6.67;;;3.20;;
3959;SDS011;1994;48.640;8.894;2022-10-30T16:34:10;5.03;;;3.27;;
3959;SDS011;1994;48.640;8.894;2022-10-30T16:36:47;3.73;;;2.80;;
3959;SDS011;1994;48.640;8.894;2022-10-30T16:39:15;6.63;;;4.63;;
3959;SDS011;1994;48.640;8.894;2022-10-30T16:41:43;6.43;;;5.30;;
3959;SDS011;1994;48.640;8.894;2022-10-30T16:44:18;15.73;;;13.83;;
3959;SDS011;1994;48.640;8.894;2022-10-30T16:46:52;13.30;;;11.93;;
3959;SDS011;1994;48.640;8.894;2022-10-30T16:52:20;8.97;;;7.37;;
3959;SDS011;1994;48.640;8.894;2022-10-30T16:54:54;7.93;;;6.83;;
3959;SDS011;1994;48.640;8.894;2022-10-30T16:57:27;6.47;;;5.20;;
3959;SDS011;1994;48.640;8.894;2022-10-30T16:59:58;8.90;;;5.83;;
3959;SDS011;1994;48.640;8.894;2022-10-30T17:02:28;8.90;;;5.00;;
3959;SDS011;1994;48.640;8.894;2022-10-30T17:05:10;5.20;;;4.40;;
3959;SDS011;1994;48.640;8.894;2022-10-30T17:08:05;7.30;;;4.90;;
3959;SDS011;1994;48.640;8.894;2022-10-30T17:10:42;6.70;;;4.77;;
3959;SDS011;1994;48.640;8.894;2022-10-30T17:13:28;5.33;;;4.40;;
3959;SDS011;1994;48.640;8.894;2022-10-30T17:21:58;7.03;;;5.13;;
3959;SDS011;1994;48.640;8.894;2022-10-30T17:24:29;7.53;;;3.97;;
3959;SDS011;1994;48.640;8.894;2022-10-30T17:27:00;8.43;;;4.67;;
3959;SDS011;1994;48.640;8.894;2022-10-30T17:29:42;5.33;;;4.27;;
3959;SDS011;1994;48.640;8.894;2022-10-30T17:35:05;14.17;;;4.73;;
3959;SDS011;1994;48.640;8.894;2022-10-30T17:37:39;5.70;;;4.60;;
3959;SDS011;1994;48.640;8.894;2022-10-30T17:40:05;7.30;;;5.67;;
3959;SDS011;1994;48.640;8.894;2022-10-30T17:42:32;6.83;;;5.33;;
3959;SDS011;1994;48.640;8.894;2022-10-30T17:44:58;5.03;;;4.53;;
3959;SDS011;1994;48.640;8.894;2022-10-30T17:47:24;6.10;;;4.53;;
3959;SDS011;1994;48.640;8.894;2022-10-30T17:49:50;8.60;;;5.43;;
3959;SDS011;1994;48.640;8.894;2022-10-30T17:52:17;8.27;;;5.53;;
3959;SDS011;1994;48.640;8.894;2022-10-30T17:54:47;11.20;;;4.47;;
3959;SDS011;1994;48.640;8.894;2022-10-30T17:57:14;5.77;;;4.47;;
3959;SDS011;1994;48.640;8.894;2022-10-30T17:59:40;7.47;;;3.87;;
3959;SDS011;1994;48.640;8.894;2022-10-30T18:02:11;4.30;;;3.00;;
3959;SDS011;1994;48.640;8.894;2022-10-30T18:04:42;3.57;;;3.27;;
3959;SDS011;1994;48.640;8.894;2022-10-30T18:07:12;2.97;;;2.77;;
3959;SDS011;1994;48.640;8.894;2022-10-30T18:09:40;4.30;;;3.30;;
3959;SDS011;1994;48.640;8.894;2022-10-30T18:12:09;6.67;;;3.87;;
3959;SDS011;1994;48.640;8.894;2022-10-30T18:14:39;4.90;;;3.53;;
3959;SDS011;1994;48.640;8.894;2022-10-30T18:17:07;6.67;;;3.90;;